Evans, CO

3:12 PM MDT on October 20, 2014 (GMT -0600)
Fort Collins-Loveland Municipal | Change Station
CLOSE
Current Station
Airport
Location: Fort Collins,
Elevation: 5016 ft
Nearby Weather Stations

Elev 5016 ft 40.45 °N, 105.01 °W | Updated 17 minutes ago

Clear
Clear
72 °F
Feels Like 72 °F
N
7
Wind Variable Wind from WNW

Today
High -- | Low -- °F
--% Chance of Precip.
Yesterday
High -- | Low -- °F
Precip. -- in
7:15 AM 6:11 PM
Waning Crescent, 9% visible
Pressure 30.07 in
Visibility 10.0 miles
Clouds Clear
Dew Point 41 °F
Humidity 33%
Rainfall 0.00 in
Snow Depth Not available.
UV 3 out of 12
Pollen 2.90 out of 12
Ozone Good
PM2.5 Good
Flu Activity Sporadic
METAR KFNL 202055Z AUTO 29006KT 10SM CLR 22/05 A3007 RMK AO1 57027

More Conditions Fewer Conditions

Pressure 30.07 in
Visibility 10.0 miles
Clouds Clear
Dew Point 41 °F
Humidity 33%
Rainfall 0.00 in
Snow Depth Not available.
UV 3 out of 12
Pollen 2.90 out of 12
Ozone Good
PM2.5 Good
Flu Activity Sporadic
METAR KFNL 202055Z AUTO 29006KT 10SM CLR 22/05 A3007 RMK AO1 57027

More Conditions Fewer Conditions

10-Day Weather Forecast

Almanac

Astronomy

Oct. 20, 2014 Rise Set
Actual Time 7:15 AM MDT 6:11 PM MDT
Civil Twilight 6:47 AM MDT 6:39 PM MDT
Nautical Twilight 6:15 AM MDT 7:10 PM MDT
Astronomical Twilight 5:44 AM MDT 7:42 PM MDT
Moon 4:05 AM MDT 4:35 PM MDT
Length of Visible Light 11h 51m
Length of Day
10h 56m
Waning Crescent, 9% of the Moon is Illuminated
Today
Waning Crescent
Oct 23
New
Oct 30
First Quarter
Nov 6
Full
Nov 14
Last Quarter

Today's Extremes

State Highs State Lows

Community

WunderPhotos

Upload Photos

1,763,510 photos uploaded!

WunderBlogs® & News

By Dr. Jeff Masters
Director of Meteorology, Weather Underground
By Kari Strenfel
Meteorologist, Weather Underground
By Christopher C. Burt
Weather Historian, Weather Underground
October 20, 2014
October 20, 2014
October 20, 2014

Nearby

Air Quality

  Air Quality AQ Index Pollutant
Yesterday Good
OZONE
Current Good
OZONE
Current Good
PM2.5
Monday Good
PM2.5
Monday Good
OZONE
Tuesday Good
PM2.5
Tuesday Good
OZONE

Snow Depth

Station Depth Elevation
Copeland Lake 0 in 8600 ft
Wild Basin 0 in 9560 ft
Never Summer 0 in 10280 ft
Echo Lake 0 in 10600 ft
Rawah 3 in 9020 ft

Earthquake Activity

City Distance Mag. Time & Date
No recent earthquake activity has been reported nearby.
Minimum magnitude displayed is 2.5.

Coastal Water Temperatures

Place Temperature
No Stations Reporting

Nearby Weather Stations